Time;durP1;ratioP1;P1;durP2;ratioP2;P2;SDS_P1;SDS_P2;PMS_P1;PMS_P2;Temp;Humidity;BMP_temperature;BMP_pressure;BME280_temperature;BME280_humidity;BME280_pressure;Samples;Min_cycle;Max_cycle;Signal;HPM_P1;HPM_P2
2023/12/08 00:01:51;;;;;;;27.30;9.70;;;3.10;99.90;;;;;;5078219;28;20188;-85
2023/12/08 00:04:16;;;;;;;25.87;8.50;;;3.10;99.90;;;;;;5078171;28;20184;-84
2023/12/08 00:06:42;;;;;;;27.67;8.23;;;3.10;99.90;;;;;;5079123;28;20224;-84
2023/12/08 00:09:09;;;;;;;28.60;9.77;;;3.10;99.90;;;;;;5078958;28;20175;-84
2023/12/08 00:11:35;;;;;;;30.67;10.02;;;3.10;99.90;;;;;;5061033;28;20168;-84
2023/12/08 00:14:01;;;;;;;30.30;9.25;;;3.10;99.90;;;;;;5078558;28;20180;-84
2023/12/08 00:16:29;;;;;;;28.40;9.60;;;3.10;99.90;;;;;;5078309;28;20165;-85
2023/12/08 00:18:58;;;;;;;27.95;9.20;;;3.10;99.90;;;;;;5078962;28;20157;-85
2023/12/08 00:21:25;;;;;;;29.70;9.73;;;3.20;99.90;;;;;;5078103;28;20251;-84
2023/12/08 00:23:51;;;;;;;26.60;9.20;;;3.20;99.90;;;;;;5078877;28;20184;-85
2023/12/08 00:26:17;;;;;;;24.42;7.97;;;3.30;99.90;;;;;;5077515;28;20160;-84
2023/12/08 00:28:44;;;;;;;27.20;9.60;;;3.30;99.90;;;;;;5078427;28;20221;-84
2023/12/08 00:31:10;;;;;;;28.92;8.43;;;3.30;99.90;;;;;;5077698;28;20153;-85
2023/12/08 00:33:36;;;;;;;28.83;9.43;;;3.30;99.90;;;;;;5060837;28;20180;-85
2023/12/08 00:36:10;;;;;;;25.60;9.13;;;3.30;99.90;;;;;;5078409;28;20164;-82
2023/12/08 00:38:36;;;;;;;30.20;8.63;;;3.30;99.90;;;;;;5079223;28;20153;-82
2023/12/08 00:41:02;;;;;;;26.60;8.67;;;3.30;99.90;;;;;;5081448;28;20164;-84
2023/12/08 00:43:30;;;;;;;26.75;8.85;;;3.40;99.90;;;;;;5082582;28;20192;-85
2023/12/08 00:45:57;;;;;;;28.85;9.90;;;3.40;99.90;;;;;;5082924;28;20596;-85
2023/12/08 00:48:23;;;;;;;26.75;9.60;;;3.30;99.90;;;;;;5082884;28;20157;-85
2023/12/08 00:50:49;;;;;;;29.80;9.27;;;3.40;99.90;;;;;;5082977;28;20654;-85
2023/12/08 00:53:15;;;;;;;27.90;10.00;;;3.40;99.90;;;;;;5065263;28;20194;-85
2023/12/08 00:55:40;;;;;;;26.45;8.65;;;3.30;99.90;;;;;;5082099;28;20203;-85
2023/12/08 00:58:06;;;;;;;48.33;10.43;;;3.30;99.90;;;;;;5064688;28;20192;-84
2023/12/08 01:00:32;;;;;;;31.30;10.43;;;3.30;99.90;;;;;;5064241;28;20172;-84
2023/12/08 01:02:57;;;;;;;25.93;8.87;;;3.40;99.90;;;;;;5064313;28;20219;-85
2023/12/08 01:05:23;;;;;;;29.33;9.70;;;3.40;99.90;;;;;;5082458;28;20552;-84
2023/12/08 01:07:49;;;;;;;30.90;9.33;;;3.40;99.90;;;;;;5081714;28;20302;-84
2023/12/08 01:10:17;;;;;;;26.03;9.53;;;3.30;99.90;;;;;;5078212;28;20525;-84
2023/12/08 01:12:43;;;;;;;25.75;8.38;;;3.40;99.90;;;;;;5077674;28;20156;-84
2023/12/08 01:15:09;;;;;;;29.73;10.47;;;3.30;99.90;;;;;;5077954;28;20188;-84
2023/12/08 01:17:35;;;;;;;30.70;10.50;;;3.40;99.90;;;;;;5077324;28;20828;-85
2023/12/08 01:20:00;;;;;;;28.90;9.53;;;3.40;99.90;;;;;;5077760;28;20436;-84
2023/12/08 01:22:29;;;;;;;26.70;9.77;;;3.40;99.90;;;;;;5060200;28;20576;-84
2023/12/08 01:24:54;;;;;;;29.05;10.85;;;3.40;99.90;;;;;;5077642;28;20231;-84
2023/12/08 01:27:20;;;;;;;25.30;9.00;;;3.40;99.90;;;;;;5059767;28;20165;-84
2023/12/08 01:29:46;;;;;;;28.73;9.63;;;3.40;99.90;;;;;;5077544;28;20218;-84
2023/12/08 01:32:11;;;;;;;29.03;9.67;;;3.40;99.90;;;;;;5077490;28;20164;-84
2023/12/08 01:34:37;;;;;;;31.40;9.53;;;3.40;99.90;;;;;;5077222;28;20538;-84
2023/12/08 01:37:03;;;;;;;27.97;9.70;;;3.40;99.90;;;;;;5059317;28;20642;-84
2023/12/08 01:39:28;;;;;;;32.43;9.93;;;3.40;99.90;;;;;;5077101;28;20251;-84
2023/12/08 01:41:54;;;;;;;29.03;9.10;;;3.30;99.90;;;;;;5078389;28;20442;-84
2023/12/08 01:44:20;;;;;;;32.80;10.83;;;3.40;99.90;;;;;;5077314;28;20180;-82
2023/12/08 01:46:46;;;;;;;31.43;10.37;;;3.40;99.90;;;;;;5077044;28;20161;-82
2023/12/08 01:49:13;;;;;;;28.42;9.40;;;3.30;99.90;;;;;;5077217;28;20157;-82
2023/12/08 01:51:39;;;;;;;30.27;10.13;;;3.20;99.90;;;;;;5075572;28;20156;-82
2023/12/08 01:54:06;;;;;;;32.53;9.63;;;3.20;99.90;;;;;;5076926;28;20177;-83
2023/12/08 01:56:32;;;;;;;31.77;10.93;;;3.20;99.90;;;;;;5058762;28;20426;-83
2023/12/08 02:03:57;;;;;;;31.63;11.65;;;3.10;99.90;;;;;;5053435;28;20589;-83
2023/12/08 02:06:22;;;;;;;29.92;10.77;;;3.10;99.90;;;;;;5038723;28;20717;-83
2023/12/08 02:08:48;;;;;;;29.83;10.93;;;3.10;99.90;;;;;;5056049;28;20193;-83
2023/12/08 02:11:14;;;;;;;28.50;10.17;;;3.10;99.90;;;;;;5038487;28;20177;-83
2023/12/08 02:13:43;;;;;;;30.35;9.70;;;3.10;99.90;;;;;;5056207;28;20431;-83
2023/12/08 02:16:21;;;;;;;32.78;12.07;;;3.10;99.90;;;;;;5038289;28;20256;-83
2023/12/08 02:18:47;;;;;;;32.72;11.35;;;3.10;99.90;;;;;;5038363;28;20168;-83
2023/12/08 02:21:16;;;;;;;32.58;10.80;;;3.10;99.90;;;;;;5056215;28;20226;-84
2023/12/08 02:23:46;;;;;;;33.13;11.65;;;3.10;99.90;;;;;;5056512;28;20200;-84
2023/12/08 02:26:12;;;;;;;28.15;9.25;;;3.20;99.90;;;;;;5055944;28;20172;-83
2023/12/08 02:28:38;;;;;;;30.67;10.90;;;3.20;99.90;;;;;;5055876;28;20172;-84
2023/12/08 02:31:07;;;;;;;27.63;8.53;;;3.20;99.90;;;;;;5056505;28;20242;-84
2023/12/08 02:33:36;;;;;;;31.00;9.70;;;3.20;99.90;;;;;;5055887;28;20168;-84
2023/12/08 02:36:04;;;;;;;27.77;8.90;;;3.10;99.90;;;;;;5055991;28;20243;-84
2023/12/08 02:38:32;;;;;;;29.15;9.93;;;3.20;99.90;;;;;;5055835;28;20165;-84
2023/12/08 02:40:58;;;;;;;26.92;10.40;;;3.20;99.90;;;;;;5056083;28;20257;-84
2023/12/08 02:43:24;;;;;;;28.30;9.75;;;3.20;99.90;;;;;;5055824;28;20228;-84
2023/12/08 02:45:50;;;;;;;33.37;9.33;;;3.20;99.90;;;;;;5056870;28;20173;-84
2023/12/08 02:48:15;;;;;;;29.57;9.90;;;3.20;99.90;;;;;;5055920;28;20169;-84
2023/12/08 02:50:42;;;;;;;25.73;8.20;;;3.20;99.90;;;;;;5038351;28;20173;-84
2023/12/08 02:53:08;;;;;;;28.45;8.35;;;3.20;99.90;;;;;;5055940;28;20176;-84
2023/12/08 02:55:34;;;;;;;25.80;8.97;;;3.20;99.90;;;;;;5038282;28;20189;-84
2023/12/08 02:58:00;;;;;;;27.45;9.00;;;3.20;99.90;;;;;;5055489;28;20404;-84
2023/12/08 03:00:26;;;;;;;28.50;9.40;;;3.20;99.90;;;;;;5037805;28;20176;-84
2023/12/08 03:02:52;;;;;;;29.60;9.97;;;3.20;99.90;;;;;;5055135;28;20200;-84
2023/12/08 03:07:45;;;;;;;26.92;9.48;;;3.20;99.90;;;;;;5232129;22;20215;-84
2023/12/08 03:12:39;;;;;;;29.98;9.38;;;3.10;99.90;;;;;;5053827;28;20612;-81
2023/12/08 03:15:05;;;;;;;31.10;10.40;;;3.20;99.90;;;;;;5057307;28;20189;-81
2023/12/08 03:17:35;;;;;;;29.60;9.75;;;3.10;99.90;;;;;;5039388;28;20234;-81
2023/12/08 03:20:00;;;;;;;26.45;8.15;;;3.20;99.90;;;;;;5057397;28;20161;-81
2023/12/08 03:22:26;;;;;;;27.93;9.17;;;3.10;99.90;;;;;;5058025;28;20189;-81
2023/12/08 03:24:52;;;;;;;28.30;10.45;;;3.10;99.90;;;;;;5057854;28;20189;-81
2023/12/08 03:27:18;;;;;;;31.83;8.90;;;3.10;99.90;;;;;;5055711;28;20228;-80
2023/12/08 03:29:43;;;;;;;29.27;9.70;;;3.10;99.90;;;;;;5054614;28;20594;-80
2023/12/08 03:32:09;;;;;;;29.10;10.47;;;3.00;99.90;;;;;;5055022;28;20574;-81
2023/12/08 03:35:21;;;;;;;31.27;10.10;;;3.00;99.90;;;;;;5054636;28;20185;-80
2023/12/08 03:37:47;;;;;;;31.02;9.43;;;3.00;99.90;;;;;;5054787;28;20251;-81
2023/12/08 03:40:13;;;;;;;28.73;10.47;;;3.00;99.90;;;;;;5036963;28;20258;-80
2023/12/08 03:42:38;;;;;;;31.75;11.07;;;2.90;99.90;;;;;;5054571;28;20547;-81
2023/12/08 03:45:05;;;;;;;29.40;9.63;;;2.90;99.90;;;;;;5054038;28;20336;-81
2023/12/08 03:47:30;;;;;;;30.98;10.57;;;2.90;99.90;;;;;;5054236;28;20227;-81
2023/12/08 03:49:57;;;;;;;30.87;10.20;;;2.90;99.90;;;;;;5053994;28;20161;-81
2023/12/08 03:52:23;;;;;;;36.55;11.13;;;2.90;99.90;;;;;;5054438;28;20491;-81
2023/12/08 03:54:48;;;;;;;30.63;9.97;;;2.90;99.90;;;;;;5036293;28;20216;-81
2023/12/08 03:57:14;;;;;;;31.03;10.40;;;2.80;99.90;;;;;;5036297;28;20179;-81
2023/12/08 03:59:42;;;;;;;31.90;12.20;;;2.80;99.90;;;;;;5054080;28;20244;-81
2023/12/08 04:02:08;;;;;;;35.67;12.90;;;2.90;99.90;;;;;;5054076;28;20227;-81
2023/12/08 04:04:34;;;;;;;34.53;11.43;;;2.80;99.90;;;;;;5036282;28;20257;-81
2023/12/08 04:06:59;;;;;;;37.97;13.03;;;2.80;99.90;;;;;;5054453;28;20161;-81
2023/12/08 04:09:25;;;;;;;32.67;10.90;;;2.80;99.90;;;;;;5054237;28;20522;-81
2023/12/08 04:11:51;;;;;;;33.90;9.87;;;2.80;99.90;;;;;;5053757;28;20180;-81
2023/12/08 04:14:17;;;;;;;34.10;11.47;;;2.70;99.90;;;;;;5054609;28;20239;-81
2023/12/08 04:16:42;;;;;;;32.30;11.27;;;2.70;99.90;;;;;;5057979;28;20584;-81
2023/12/08 04:19:09;;;;;;;30.90;10.83;;;2.70;99.90;;;;;;5058019;28;20161;-81
2023/12/08 04:21:35;;;;;;;31.77;11.15;;;2.70;99.90;;;;;;5040291;28;20176;-81
2023/12/08 04:24:00;;;;;;;32.50;10.17;;;2.70;99.90;;;;;;5057716;28;20658;-81
2023/12/08 04:26:26;;;;;;;36.50;10.80;;;2.70;99.90;;;;;;5057793;28;20638;-81
2023/12/08 04:28:53;;;;;;;32.07;10.90;;;2.70;99.90;;;;;;5058241;28;20197;-81
2023/12/08 04:31:19;;;;;;;31.60;12.30;;;2.60;99.90;;;;;;5058274;28;20165;-81
2023/12/08 04:33:46;;;;;;;33.72;12.23;;;2.60;99.90;;;;;;5039822;28;20193;-81
2023/12/08 04:36:11;;;;;;;34.00;12.27;;;2.60;99.90;;;;;;5057707;28;20177;-81
2023/12/08 04:38:37;;;;;;;33.50;11.87;;;2.60;99.90;;;;;;5058041;28;20245;-81
2023/12/08 04:41:03;;;;;;;33.87;12.63;;;2.70;99.90;;;;;;5058418;28;20173;-81
2023/12/08 04:43:28;;;;;;;32.27;12.00;;;2.70;99.90;;;;;;5057895;28;20195;-81
2023/12/08 04:45:55;;;;;;;30.80;10.83;;;2.70;99.90;;;;;;5058160;28;20399;-81
2023/12/08 04:48:20;;;;;;;36.20;12.68;;;2.60;99.90;;;;;;5040317;28;20162;-81
2023/12/08 04:50:46;;;;;;;31.10;11.63;;;2.70;99.90;;;;;;5058156;28;20157;-81
2023/12/08 04:53:12;;;;;;;35.37;12.70;;;2.60;99.90;;;;;;5058759;28;20256;-81
2023/12/08 04:55:38;;;;;;;32.40;11.60;;;2.60;99.90;;;;;;5040527;28;20616;-81
2023/12/08 04:58:03;;;;;;;35.63;13.40;;;2.60;99.90;;;;;;5040645;28;20253;-81
2023/12/08 05:00:29;;;;;;;33.83;12.83;;;2.60;99.90;;;;;;5040803;28;20506;-81
2023/12/08 05:02:57;;;;;;;33.03;11.60;;;2.60;99.90;;;;;;5058635;28;20661;-81
2023/12/08 05:05:24;;;;;;;34.13;12.43;;;2.60;99.90;;;;;;5059701;28;20192;-81
2023/12/08 05:07:50;;;;;;;32.22;11.52;;;2.60;99.90;;;;;;5121255;22;20220;-83
2023/12/08 05:10:16;;;;;;;34.50;11.90;;;2.50;99.90;;;;;;5167284;22;20255;-82
2023/12/08 05:12:43;;;;;;;35.97;11.57;;;2.50;99.90;;;;;;5058610;28;20796;-83
2023/12/08 05:15:09;;;;;;;33.03;12.35;;;2.50;99.90;;;;;;5058876;28;20189;-83
2023/12/08 05:17:35;;;;;;;35.30;13.70;;;2.50;99.90;;;;;;5059594;28;20587;-83
2023/12/08 05:20:03;;;;;;;36.17;11.57;;;2.50;99.90;;;;;;5059205;28;20807;-83
2023/12/08 05:22:29;;;;;;;34.38;11.35;;;2.50;99.90;;;;;;5040832;28;20292;-83
2023/12/08 05:24:55;;;;;;;33.85;11.95;;;2.50;99.90;;;;;;5058271;28;20191;-83
2023/12/08 05:27:20;;;;;;;35.07;12.07;;;2.50;99.90;;;;;;5042309;28;20618;-84
2023/12/08 05:29:46;;;;;;;34.30;12.40;;;2.50;99.90;;;;;;5040746;28;20553;-84
2023/12/08 05:32:12;;;;;;;35.30;12.80;;;2.60;99.90;;;;;;5058884;28;20253;-84
2023/12/08 05:34:37;;;;;;;34.07;13.17;;;2.50;99.90;;;;;;5058595;28;20192;-84
2023/12/08 05:37:03;;;;;;;33.20;12.43;;;2.50;99.90;;;;;;5058674;28;20408;-84
2023/12/08 05:39:29;;;;;;;38.90;13.23;;;2.50;99.90;;;;;;5058117;28;20172;-84
2023/12/08 05:41:55;;;;;;;37.17;12.83;;;2.50;99.90;;;;;;5058377;28;20435;-85
2023/12/08 05:44:20;;;;;;;42.17;13.33;;;2.60;99.90;;;;;;5058183;28;20259;-84
2023/12/08 05:46:47;;;;;;;39.80;12.93;;;2.50;99.90;;;;;;5040569;28;20439;-84
2023/12/08 05:49:13;;;;;;;34.88;13.40;;;2.50;99.90;;;;;;5057877;28;20644;-84
2023/12/08 05:51:39;;;;;;;34.60;12.83;;;2.50;99.90;;;;;;5040279;28;20259;-84
2023/12/08 05:54:04;;;;;;;36.13;13.23;;;2.50;99.90;;;;;;5058028;28;20181;-85
2023/12/08 05:56:31;;;;;;;36.60;13.17;;;2.60;99.90;;;;;;5057933;28;20173;-85
2023/12/08 05:58:56;;;;;;;36.70;13.95;;;2.60;99.90;;;;;;5040907;28;20542;-85
2023/12/08 06:01:25;;;;;;;37.23;14.23;;;2.60;99.90;;;;;;5057619;28;20161;-84
2023/12/08 06:03:51;;;;;;;37.67;13.40;;;2.60;99.90;;;;;;5057527;28;20280;-85
2023/12/08 06:06:17;;;;;;;36.65;13.98;;;2.60;99.90;;;;;;5057810;28;20226;-85
2023/12/08 06:08:43;;;;;;;34.10;12.20;;;2.60;99.90;;;;;;5039797;28;20166;-85
2023/12/08 06:11:08;;;;;;;36.10;13.23;;;2.70;99.90;;;;;;5057405;28;20419;-85
2023/12/08 06:13:34;;;;;;;38.83;13.90;;;2.70;99.90;;;;;;5039682;28;20252;-85
2023/12/08 06:16:01;;;;;;;41.65;16.00;;;2.70;99.90;;;;;;5057178;28;20191;-85
2023/12/08 06:18:26;;;;;;;36.63;12.63;;;2.70;99.90;;;;;;5057711;28;20219;-85
2023/12/08 06:20:55;;;;;;;36.07;14.93;;;2.70;99.90;;;;;;5039306;28;20549;-85
2023/12/08 06:23:20;;;;;;;37.35;13.63;;;2.80;99.90;;;;;;5038737;28;20193;-84
2023/12/08 06:25:52;;;;;;;37.60;14.30;;;2.80;99.90;;;;;;5057213;28;20200;-85
2023/12/08 06:28:18;;;;;;;38.08;13.88;;;2.70;99.90;;;;;;5057959;28;20161;-85
2023/12/08 06:30:43;;;;;;;38.73;13.43;;;2.70;99.90;;;;;;5057253;28;20162;-84
2023/12/08 06:33:09;;;;;;;35.07;13.43;;;2.80;99.90;;;;;;5039105;28;20169;-84
2023/12/08 06:35:34;;;;;;;37.63;14.37;;;2.70;99.90;;;;;;5038553;28;20201;-84
2023/12/08 06:38:10;;;;;;;39.70;15.50;;;2.70;99.90;;;;;;5056460;28;20307;-84
2023/12/08 06:40:36;;;;;;;36.53;13.82;;;2.70;99.90;;;;;;5038950;28;20161;-84
2023/12/08 06:43:05;;;;;;;37.40;14.27;;;2.80;99.90;;;;;;5056692;28;20204;-84
2023/12/08 06:45:31;;;;;;;34.35;13.23;;;2.80;99.90;;;;;;5056982;28;20196;-84
2023/12/08 06:47:56;;;;;;;36.20;13.47;;;2.80;99.90;;;;;;5057087;28;20502;-84
2023/12/08 06:50:22;;;;;;;38.50;14.13;;;2.80;99.90;;;;;;5055741;28;20176;-84
2023/12/08 06:52:51;;;;;;;39.03;13.77;;;2.80;99.90;;;;;;5056643;28;20165;-84
2023/12/08 06:55:19;;;;;;;43.75;14.50;;;2.80;99.90;;;;;;5056310;28;20713;-84
2023/12/08 06:57:45;;;;;;;43.78;15.57;;;2.80;99.90;;;;;;5054649;28;20177;-84
2023/12/08 07:00:11;;;;;;;37.87;13.30;;;2.80;99.90;;;;;;5036791;28;20175;-85
2023/12/08 07:02:44;;;;;;;36.13;13.18;;;2.90;99.90;;;;;;5054522;28;20268;-84
2023/12/08 07:05:10;;;;;;;35.75;13.85;;;2.90;99.90;;;;;;5054174;28;20204;-84
2023/12/08 07:07:36;;;;;;;36.93;13.57;;;2.90;99.90;;;;;;5054496;28;20161;-84
2023/12/08 07:10:02;;;;;;;36.80;13.10;;;2.90;99.90;;;;;;5036367;28;20415;-84
2023/12/08 07:12:27;;;;;;;39.03;14.32;;;2.90;99.90;;;;;;5036489;28;20189;-84
2023/12/08 07:14:53;;;;;;;37.23;13.60;;;2.90;99.90;;;;;;5054147;28;20260;-84
2023/12/08 07:17:19;;;;;;;39.67;13.77;;;2.90;99.90;;;;;;5035687;28;20542;-84
2023/12/08 07:19:44;;;;;;;37.87;13.83;;;2.90;99.90;;;;;;5053762;28;20228;-84
2023/12/08 07:22:10;;;;;;;42.00;15.30;;;3.00;99.90;;;;;;5053386;28;20181;-84
2023/12/08 07:24:40;;;;;;;36.47;13.83;;;3.00;99.90;;;;;;5035693;28;20189;-84
2023/12/08 07:27:08;;;;;;;38.55;13.27;;;3.00;99.90;;;;;;5053365;28;20406;-85
2023/12/08 07:29:36;;;;;;;36.38;13.45;;;3.00;99.90;;;;;;5053265;28;20161;-84
2023/12/08 07:32:03;;;;;;;37.20;12.60;;;3.00;99.90;;;;;;5035429;28;20172;-84
2023/12/08 07:34:29;;;;;;;36.55;13.48;;;3.00;99.90;;;;;;5053155;28;20185;-84
2023/12/08 07:36:54;;;;;;;37.07;13.37;;;3.10;99.90;;;;;;5053280;28;20172;-84
2023/12/08 07:39:20;;;;;;;36.67;13.30;;;3.10;99.90;;;;;;5053507;28;20166;-84
2023/12/08 07:41:46;;;;;;;35.77;13.23;;;3.10;99.90;;;;;;5053408;28;20169;-83
2023/12/08 07:44:11;;;;;;;39.57;13.37;;;3.10;99.90;;;;;;5053251;28;20192;-84
2023/12/08 07:46:37;;;;;;;34.43;13.10;;;3.10;99.90;;;;;;5035252;28;20254;-83
2023/12/08 07:49:03;;;;;;;38.17;14.50;;;3.10;99.90;;;;;;5035618;28;20173;-84
2023/12/08 07:51:30;;;;;;;40.83;14.37;;;3.10;99.90;;;;;;5053083;28;20222;-84
2023/12/08 07:53:56;;;;;;;39.10;13.02;;;3.10;99.90;;;;;;5035179;28;20737;-83
2023/12/08 07:56:22;;;;;;;38.00;13.67;;;3.20;99.90;;;;;;5053461;28;20216;-84
2023/12/08 07:58:48;;;;;;;37.35;14.15;;;3.20;99.90;;;;;;5053444;28;20240;-84
2023/12/08 08:01:17;;;;;;;41.00;15.10;;;3.20;99.90;;;;;;5035306;28;20662;-84
2023/12/08 08:03:42;;;;;;;42.80;14.82;;;3.20;99.90;;;;;;5053170;28;20887;-84
2023/12/08 08:06:09;;;;;;;38.00;14.70;;;3.30;99.90;;;;;;5053566;28;20245;-84
2023/12/08 08:08:35;;;;;;;33.83;13.18;;;3.30;99.90;;;;;;5053301;28;20256;-84
2023/12/08 08:11:01;;;;;;;35.15;12.13;;;3.20;99.90;;;;;;5035011;28;20189;-83
2023/12/08 08:13:27;;;;;;;45.63;15.47;;;3.30;99.90;;;;;;5053130;28;20674;-84
2023/12/08 08:15:52;;;;;;;38.10;14.87;;;3.30;99.90;;;;;;5035138;28;20173;-83
2023/12/08 08:18:18;;;;;;;36.97;13.53;;;3.30;99.90;;;;;;5115041;22;20484;-83
2023/12/08 08:20:50;;;;;;;37.17;14.87;;;3.30;99.90;;;;;;5118940;22;20302;-83
2023/12/08 08:23:16;;;;;;;41.90;14.27;;;3.30;99.90;;;;;;5052621;28;20181;-83
2023/12/08 08:25:49;;;;;;;38.17;13.88;;;3.30;99.90;;;;;;5052739;28;20276;-84
2023/12/08 08:28:26;;;;;;;37.13;15.00;;;3.30;99.90;;;;;;5052723;28;20618;-83
2023/12/08 08:30:57;;;;;;;38.90;14.38;;;3.40;99.90;;;;;;5035185;28;20271;-84
2023/12/08 08:33:41;;;;;;;36.17;13.25;;;3.30;99.90;;;;;;5052928;28;20196;-84
2023/12/08 08:36:47;;;;;;;38.83;14.20;;;3.40;99.90;;;;;;5035074;28;20165;-84
2023/12/08 08:39:19;;;;;;;36.80;13.93;;;3.30;99.90;;;;;;5052163;28;20234;-83
2023/12/08 08:41:55;;;;;;;37.17;13.23;;;3.40;99.90;;;;;;5052584;28;20232;-84
2023/12/08 08:44:27;;;;;;;37.28;13.48;;;3.40;99.90;;;;;;5052438;28;20593;-84
2023/12/08 08:47:03;;;;;;;36.10;13.27;;;3.50;99.90;;;;;;5034623;28;20188;-84
2023/12/08 08:49:38;;;;;;;38.30;13.60;;;3.50;99.90;;;;;;5052866;28;20153;-84
2023/12/08 08:52:07;;;;;;;38.55;13.15;;;3.50;99.90;;;;;;5052530;28;20191;-84
2023/12/08 08:54:32;;;;;;;35.47;11.93;;;3.60;99.90;;;;;;5034659;28;20290;-84
2023/12/08 08:57:01;;;;;;;42.37;13.23;;;3.50;99.90;;;;;;5052701;28;20658;-83
2023/12/08 08:59:26;;;;;;;56.25;23.55;;;3.60;99.90;;;;;;5052443;28;20635;-84
2023/12/08 09:01:52;;;;;;;41.93;16.03;;;3.60;99.90;;;;;;5037492;28;20303;-84
2023/12/08 09:04:18;;;;;;;45.10;19.73;;;3.70;99.90;;;;;;5055931;28;20666;-84
2023/12/08 09:06:44;;;;;;;40.03;13.77;;;3.70;99.90;;;;;;5055882;28;20165;-83
2023/12/08 09:09:09;;;;;;;39.33;14.13;;;3.80;99.90;;;;;;5056458;28;20702;-83
2023/12/08 09:11:35;;;;;;;47.27;15.00;;;3.70;99.90;;;;;;5056014;28;20240;-83
2023/12/08 09:14:01;;;;;;;38.10;14.20;;;3.70;99.90;;;;;;5055784;28;20498;-83
2023/12/08 09:16:27;;;;;;;41.77;14.87;;;3.70;99.90;;;;;;5056165;28;20384;-83
2023/12/08 09:18:52;;;;;;;39.23;14.00;;;3.80;99.90;;;;;;5055996;28;20172;-83
2023/12/08 09:21:18;;;;;;;38.07;13.57;;;3.80;99.90;;;;;;5055784;28;20177;-84
2023/12/08 09:23:44;;;;;;;51.33;13.27;;;3.70;99.90;;;;;;5055502;28;20204;-83
2023/12/08 09:26:10;;;;;;;42.40;14.50;;;3.80;99.90;;;;;;5055535;28;20164;-83
2023/12/08 09:28:35;;;;;;;41.63;14.73;;;3.80;99.90;;;;;;5038396;28;20260;-83
2023/12/08 09:31:01;;;;;;;37.17;13.83;;;3.80;99.90;;;;;;5055509;28;20225;-83
2023/12/08 09:33:28;;;;;;;52.67;19.03;;;3.80;99.90;;;;;;5055402;28;20634;-83
2023/12/08 09:35:55;;;;;;;37.28;12.15;;;3.80;99.90;;;;;;5055463;28;20169;-83
2023/12/08 09:38:21;;;;;;;36.25;12.13;;;3.80;99.90;;;;;;5037551;28;20181;-83
2023/12/08 09:40:47;;;;;;;38.75;14.35;;;3.90;99.90;;;;;;5038053;28;20251;-84
2023/12/08 09:43:25;;;;;;;36.70;13.70;;;3.90;99.90;;;;;;5056284;28;20224;-83
2023/12/08 09:45:54;;;;;;;34.17;12.10;;;3.90;99.90;;;;;;5055271;28;20157;-83
2023/12/08 09:48:21;;;;;;;32.50;12.32;;;4.00;99.90;;;;;;5055223;28;20158;-83
2023/12/08 09:50:52;;;;;;;39.03;14.20;;;4.00;99.90;;;;;;5055560;28;20499;-83
2023/12/08 09:53:24;;;;;;;39.90;14.25;;;4.00;99.90;;;;;;5037268;28;20539;-83
2023/12/08 09:55:51;;;;;;;40.42;13.98;;;4.00;99.90;;;;;;5055386;28;20195;-83
2023/12/08 09:58:17;;;;;;;41.00;14.02;;;4.00;99.90;;;;;;5055337;28;20166;-83
2023/12/08 10:00:44;;;;;;;40.67;14.95;;;4.00;99.90;;;;;;5055125;28;20530;-83
2023/12/08 10:03:10;;;;;;;41.25;14.18;;;4.10;99.90;;;;;;5037071;28;20193;-83
2023/12/08 10:05:36;;;;;;;37.22;13.13;;;4.10;99.90;;;;;;5036924;28;20208;-83
2023/12/08 10:08:02;;;;;;;36.33;14.20;;;4.10;99.90;;;;;;5055164;28;20196;-83
2023/12/08 10:10:28;;;;;;;42.00;14.40;;;4.10;99.90;;;;;;5054790;28;20157;-83
2023/12/08 10:12:56;;;;;;;41.53;14.80;;;4.10;99.90;;;;;;5035801;28;20169;-83
2023/12/08 10:15:22;;;;;;;39.63;14.02;;;4.10;99.90;;;;;;5054603;28;20260;-84
2023/12/08 10:17:51;;;;;;;37.43;13.97;;;4.20;99.90;;;;;;5036771;28;20168;-84
2023/12/08 10:20:19;;;;;;;41.97;15.10;;;4.20;99.90;;;;;;5054573;28;20424;-84
2023/12/08 10:22:50;;;;;;;36.05;13.13;;;4.30;99.90;;;;;;5054491;28;20213;-84
2023/12/08 10:25:18;;;;;;;43.97;14.02;;;4.30;99.90;;;;;;5054984;28;20227;-84
2023/12/08 10:27:49;;;;;;;38.58;14.30;;;4.40;99.90;;;;;;5036621;28;20165;-84
2023/12/08 10:30:26;;;;;;;38.10;13.23;;;4.40;99.90;;;;;;5054396;28;20673;-84
2023/12/08 10:32:51;;;;;;;40.35;13.30;;;4.40;99.90;;;;;;5054726;28;20157;-84
2023/12/08 10:35:17;;;;;;;39.90;13.20;;;4.50;99.90;;;;;;5054332;28;20192;-84
2023/12/08 10:37:47;;;;;;;38.90;13.02;;;4.50;99.90;;;;;;5036487;28;20598;-83
2023/12/08 10:40:17;;;;;;;35.35;12.68;;;4.50;99.90;;;;;;5054308;28;20161;-84
2023/12/08 10:42:49;;;;;;;37.60;11.90;;;4.50;99.90;;;;;;5054399;28;20177;-84
2023/12/08 10:45:15;;;;;;;42.70;13.18;;;4.60;99.90;;;;;;5054207;28;20185;-84
2023/12/08 10:47:45;;;;;;;37.08;11.93;;;4.60;99.90;;;;;;5054324;28;20157;-84
2023/12/08 10:50:11;;;;;;;36.58;11.85;;;4.60;99.90;;;;;;5036171;28;20161;-84
2023/12/08 10:52:38;;;;;;;38.47;14.15;;;4.60;99.90;;;;;;5127720;22;20259;-84
2023/12/08 10:55:08;;;;;;;38.05;13.15;;;4.60;99.90;;;;;;5035944;28;20185;-84
2023/12/08 10:57:34;;;;;;;40.45;14.07;;;4.60;99.90;;;;;;5036116;28;20623;-83
2023/12/08 11:00:17;;;;;;;37.08;13.88;;;4.60;99.90;;;;;;5036044;28;20166;-84
2023/12/08 11:02:50;;;;;;;38.60;12.73;;;4.60;99.90;;;;;;5053659;28;20279;-84
2023/12/08 11:05:28;;;;;;;38.42;13.52;;;4.60;99.90;;;;;;5035896;28;20201;-84
2023/12/08 11:07:56;;;;;;;47.20;13.15;;;4.60;99.90;;;;;;5035913;28;20192;-84
2023/12/08 11:10:24;;;;;;;35.70;11.07;;;4.70;99.90;;;;;;5035789;28;20175;-84
2023/12/08 11:12:56;;;;;;;42.17;13.30;;;4.70;99.90;;;;;;5053676;28;20164;-84
2023/12/08 11:15:23;;;;;;;41.67;13.30;;;4.80;99.90;;;;;;5053609;28;20181;-84
2023/12/08 11:18:11;;;;;;;36.00;11.75;;;4.80;99.90;;;;;;5053585;28;20722;-84
2023/12/08 11:20:40;;;;;;;35.85;12.10;;;4.80;99.90;;;;;;5053521;28;20177;-83
2023/12/08 11:23:06;;;;;;;43.85;14.65;;;4.90;99.90;;;;;;5052976;28;20181;-83
2023/12/08 11:25:42;;;;;;;40.43;14.67;;;4.90;99.90;;;;;;5053291;28;20189;-84
2023/12/08 11:28:34;;;;;;;38.40;11.77;;;4.90;99.90;;;;;;5053737;28;20391;-83
2023/12/08 11:31:13;;;;;;;35.15;11.90;;;5.00;99.90;;;;;;5053669;28;20150;-83
2023/12/08 11:34:08;;;;;;;37.58;12.75;;;5.00;99.90;;;;;;5035388;28;20252;-83
2023/12/08 11:36:41;;;;;;;38.00;13.07;;;5.00;99.90;;;;;;5053700;28;20195;-83
2023/12/08 11:39:42;;;;;;;37.72;12.32;;;5.00;99.90;;;;;;5053336;28;20232;-83
2023/12/08 11:42:13;;;;;;;40.30;12.30;;;5.00;99.90;;;;;;5024538;28;20254;-83
2023/12/08 11:44:45;;;;;;;36.13;11.88;;;4.90;99.90;;;;;;5035547;28;20193;-83
2023/12/08 11:47:16;;;;;;;36.28;12.82;;;4.90;99.90;;;;;;5053435;28;20149;-83
2023/12/08 11:49:44;;;;;;;37.63;12.13;;;5.00;99.90;;;;;;5053433;28;20185;-83
2023/12/08 11:52:19;;;;;;;39.25;13.30;;;5.00;99.90;;;;;;5053123;28;20263;-83
2023/12/08 11:55:07;;;;;;;42.08;14.35;;;5.00;99.90;;;;;;5053002;28;20193;-83
2023/12/08 11:57:34;;;;;;;38.30;12.13;;;5.10;99.90;;;;;;5053409;28;20541;-83
2023/12/08 12:00:00;;;;;;;40.10;14.27;;;5.10;99.90;;;;;;5053098;28;20177;-83
2023/12/08 12:02:28;;;;;;;39.87;12.80;;;5.20;99.90;;;;;;5052930;28;20185;-83
2023/12/08 12:04:58;;;;;;;43.42;11.80;;;5.20;99.90;;;;;;5053007;28;20424;-83
2023/12/08 12:07:23;;;;;;;41.05;12.38;;;5.30;99.90;;;;;;5052931;28;20156;-83
2023/12/08 12:09:52;;;;;;;45.63;15.60;;;5.30;99.90;;;;;;5053226;28;20158;-83
2023/12/08 12:12:29;;;;;;;45.20;12.90;;;5.30;99.90;;;;;;5035923;28;20201;-83
2023/12/08 12:14:56;;;;;;;38.10;13.63;;;5.30;99.90;;;;;;5053088;28;20250;-83
2023/12/08 12:17:25;;;;;;;35.88;11.85;;;5.30;99.90;;;;;;5052828;28;20599;-83
2023/12/08 12:20:00;;;;;;;44.80;15.57;;;5.30;99.90;;;;;;5035057;28;20586;-83
2023/12/08 12:22:26;;;;;;;42.30;15.52;;;5.30;99.90;;;;;;5034884;28;20608;-83
2023/12/08 12:24:52;;;;;;;41.77;13.87;;;5.30;99.90;;;;;;5052844;28;20181;-83
2023/12/08 12:27:20;;;;;;;38.33;12.90;;;5.40;99.90;;;;;;5052960;28;20157;-83
2023/12/08 12:29:46;;;;;;;43.03;13.27;;;5.40;99.90;;;;;;5052783;28;20184;-83
2023/12/08 12:32:12;;;;;;;42.08;14.63;;;5.40;99.90;;;;;;5034969;28;20173;-83
2023/12/08 12:34:38;;;;;;;49.30;17.80;;;5.40;99.90;;;;;;5053012;28;20242;-83
2023/12/08 12:37:11;;;;;;;46.65;16.90;;;5.40;99.90;;;;;;5056365;28;20400;-83
2023/12/08 12:39:37;;;;;;;41.78;15.45;;;5.50;99.90;;;;;;5038739;28;20169;-83
2023/12/08 12:42:06;;;;;;;44.45;11.73;;;5.50;99.90;;;;;;5038848;28;20227;-83
2023/12/08 12:44:43;;;;;;;42.70;12.20;;;5.50;99.90;;;;;;5056308;28;20182;-83
2023/12/08 12:47:09;;;;;;;42.50;14.07;;;5.50;99.90;;;;;;5056339;28;20157;-83
2023/12/08 12:49:37;;;;;;;43.00;13.35;;;5.50;99.90;;;;;;5056560;28;20467;-83
2023/12/08 12:52:03;;;;;;;40.38;11.50;;;5.50;99.90;;;;;;5056130;28;20177;-83